Jitauna, Brazil
Current Conditions -  °F | °C
As of 9:00 AM on Tuesday 21 Oct 2014 (Local Time) from SBIL Reporting Station
Rain Showers Rain Showers  
Wind Chill: 81°   Ceiling: 7000
Heat Index: 85°   Visibility: 6mi
Dew Point: 72°   Wind: 9mph
Humidity: 74%   Direction: 60°ENE
Pressure: NA   Gusts: NA
Location:  14.02°S, 39.89°W
Report Text: SBIL 211200Z 06008KT 9999 VCSH SCT025 FEW030TCU BKN070 27/22 Q1016
Loading
Personal Weather Stations






























Interactive Weather Map
Tropical Storm Tracking
New forecast layout! Learn more

10-Day Weather Forecast

Advertisements
Track Severe Weather on mobile